sensor_id;sensor_type;location;lat;lon;timestamp;temperature;humidity
54788;DHT22;59598;48.112;16.280;2023-05-27T00:00:19;14.60;99.90
54788;DHT22;59598;48.112;16.280;2023-05-27T00:02:50;14.60;99.90
54788;DHT22;59598;48.112;16.280;2023-05-27T00:05:24;14.50;99.90
54788;DHT22;59598;48.112;16.280;2023-05-27T00:07:58;14.50;99.90
54788;DHT22;59598;48.112;16.280;2023-05-27T00:10:30;14.50;99.90
54788;DHT22;59598;48.112;16.280;2023-05-27T00:13:01;14.40;99.90
54788;DHT22;59598;48.112;16.280;2023-05-27T00:15:37;14.50;99.90
54788;DHT22;59598;48.112;16.280;2023-05-27T00:18:08;14.40;99.90
54788;DHT22;59598;48.112;16.280;2023-05-27T00:20:40;14.40;99.90
54788;DHT22;59598;48.112;16.280;2023-05-27T00:23:12;14.30;99.90
54788;DHT22;59598;48.112;16.280;2023-05-27T00:25:46;14.30;99.90
54788;DHT22;59598;48.112;16.280;2023-05-27T00:28:18;14.30;99.90
54788;DHT22;59598;48.112;16.280;2023-05-27T00:30:55;14.20;99.90
54788;DHT22;59598;48.112;16.280;2023-05-27T00:33:26;14.20;99.90
54788;DHT22;59598;48.112;16.280;2023-05-27T00:35:57;14.10;99.90
54788;DHT22;59598;48.112;16.280;2023-05-27T00:38:29;14.10;99.90
54788;DHT22;59598;48.112;16.280;2023-05-27T00:41:00;14.10;99.90
54788;DHT22;59598;48.112;16.280;2023-05-27T00:43:34;14.10;37.00
54788;DHT22;59598;48.112;16.280;2023-05-27T00:46:06;14.10;1.00
54788;DHT22;59598;48.112;16.280;2023-05-27T00:48:40;14.10;1.00
54788;DHT22;59598;48.112;16.280;2023-05-27T00:51:17;14.10;1.00
54788;DHT22;59598;48.112;16.280;2023-05-27T00:53:49;14.10;1.00
54788;DHT22;59598;48.112;16.280;2023-05-27T00:56:25;14.10;1.00
54788;DHT22;59598;48.112;16.280;2023-05-27T00:58:59;14.10;1.00
54788;DHT22;59598;48.112;16.280;2023-05-27T01:01:31;14.10;1.00
54788;DHT22;59598;48.112;16.280;2023-05-27T01:04:05;14.20;1.00
54788;DHT22;59598;48.112;16.280;2023-05-27T01:09:24;14.10;1.00
54788;DHT22;59598;48.112;16.280;2023-05-27T01:14:49;14.10;1.00
54788;DHT22;59598;48.112;16.280;2023-05-27T01:17:24;14.00;1.00
54788;DHT22;59598;48.112;16.280;2023-05-27T01:19:59;14.00;1.00
54788;DHT22;59598;48.112;16.280;2023-05-27T01:22:32;14.10;1.00
54788;DHT22;59598;48.112;16.280;2023-05-27T01:25:03;14.00;1.00
54788;DHT22;59598;48.112;16.280;2023-05-27T01:27:35;13.90;1.00
54788;DHT22;59598;48.112;16.280;2023-05-27T01:30:13;13.90;1.00
54788;DHT22;59598;48.112;16.280;2023-05-27T01:33:07;13.90;1.00
54788;DHT22;59598;48.112;16.280;2023-05-27T01:35:48;14.00;1.00
54788;DHT22;59598;48.112;16.280;2023-05-27T01:38:26;13.90;1.00
54788;DHT22;59598;48.112;16.280;2023-05-27T01:41:01;13.90;1.00
54788;DHT22;59598;48.112;16.280;2023-05-27T01:43:35;13.80;1.00
54788;DHT22;59598;48.112;16.280;2023-05-27T01:46:07;13.80;1.00
54788;DHT22;59598;48.112;16.280;2023-05-27T01:48:38;13.80;1.00
54788;DHT22;59598;48.112;16.280;2023-05-27T01:51:10;13.80;1.00
54788;DHT22;59598;48.112;16.280;2023-05-27T01:53:43;13.80;1.00
54788;DHT22;59598;48.112;16.280;2023-05-27T01:56:14;13.80;1.00
54788;DHT22;59598;48.112;16.280;2023-05-27T01:58:50;13.70;1.00
54788;DHT22;59598;48.112;16.280;2023-05-27T02:01:22;13.70;1.00
54788;DHT22;59598;48.112;16.280;2023-05-27T02:03:59;13.60;1.00
54788;DHT22;59598;48.112;16.280;2023-05-27T02:06:33;13.70;1.00
54788;DHT22;59598;48.112;16.280;2023-05-27T02:09:10;13.70;1.00
54788;DHT22;59598;48.112;16.280;2023-05-27T02:11:43;13.70;1.00
54788;DHT22;59598;48.112;16.280;2023-05-27T02:14:15;13.70;1.00
54788;DHT22;59598;48.112;16.280;2023-05-27T02:16:47;13.60;1.00
54788;DHT22;59598;48.112;16.280;2023-05-27T02:19:21;13.50;1.00
54788;DHT22;59598;48.112;16.280;2023-05-27T02:21:53;13.50;1.00
54788;DHT22;59598;48.112;16.280;2023-05-27T02:24:27;13.50;1.00
54788;DHT22;59598;48.112;16.280;2023-05-27T02:26:58;13.50;1.00
54788;DHT22;59598;48.112;16.280;2023-05-27T02:29:30;13.50;1.00
54788;DHT22;59598;48.112;16.280;2023-05-27T02:32:03;13.50;1.00
54788;DHT22;59598;48.112;16.280;2023-05-27T02:34:38;13.50;1.00
54788;DHT22;59598;48.112;16.280;2023-05-27T02:37:09;13.50;1.00
54788;DHT22;59598;48.112;16.280;2023-05-27T02:39:45;13.50;1.00
54788;DHT22;59598;48.112;16.280;2023-05-27T02:42:16;13.40;1.00
54788;DHT22;59598;48.112;16.280;2023-05-27T02:44:48;13.40;1.00
54788;DHT22;59598;48.112;16.280;2023-05-27T02:47:19;13.40;1.00
54788;DHT22;59598;48.112;16.280;2023-05-27T02:49:50;13.50;1.00
54788;DHT22;59598;48.112;16.280;2023-05-27T02:52:24;13.50;1.00
54788;DHT22;59598;48.112;16.280;2023-05-27T02:54:56;13.40;1.00
54788;DHT22;59598;48.112;16.280;2023-05-27T02:57:27;13.40;1.00
54788;DHT22;59598;48.112;16.280;2023-05-27T02:59:58;13.30;1.00
54788;DHT22;59598;48.112;16.280;2023-05-27T03:02:30;13.30;1.00
54788;DHT22;59598;48.112;16.280;2023-05-27T03:05:02;13.30;1.00
54788;DHT22;59598;48.112;16.280;2023-05-27T03:07:34;13.30;1.00
54788;DHT22;59598;48.112;16.280;2023-05-27T03:10:07;13.20;1.00
54788;DHT22;59598;48.112;16.280;2023-05-27T03:12:44;13.30;1.00
54788;DHT22;59598;48.112;16.280;2023-05-27T03:15:15;13.40;1.00
54788;DHT22;59598;48.112;16.280;2023-05-27T03:17:49;13.30;1.00
54788;DHT22;59598;48.112;16.280;2023-05-27T03:20:21;13.30;1.00
54788;DHT22;59598;48.112;16.280;2023-05-27T03:22:52;13.30;1.00
54788;DHT22;59598;48.112;16.280;2023-05-27T03:25:27;13.30;1.00
54788;DHT22;59598;48.112;16.280;2023-05-27T03:28:02;13.30;1.00
54788;DHT22;59598;48.112;16.280;2023-05-27T03:30:34;13.20;1.00
54788;DHT22;59598;48.112;16.280;2023-05-27T03:33:09;13.30;1.00
54788;DHT22;59598;48.112;16.280;2023-05-27T03:35:42;13.20;1.00
54788;DHT22;59598;48.112;16.280;2023-05-27T03:38:16;13.20;1.00
54788;DHT22;59598;48.112;16.280;2023-05-27T03:40:48;13.20;1.00
54788;DHT22;59598;48.112;16.280;2023-05-27T03:43:19;13.30;1.00
54788;DHT22;59598;48.112;16.280;2023-05-27T03:45:55;13.30;1.00
54788;DHT22;59598;48.112;16.280;2023-05-27T03:48:27;13.40;1.00
54788;DHT22;59598;48.112;16.280;2023-05-27T03:50:58;13.40;1.00
54788;DHT22;59598;48.112;16.280;2023-05-27T03:53:34;13.30;1.00
54788;DHT22;59598;48.112;16.280;2023-05-27T03:56:08;13.40;1.00
54788;DHT22;59598;48.112;16.280;2023-05-27T03:58:43;13.40;1.00
54788;DHT22;59598;48.112;16.280;2023-05-27T04:01:17;13.40;1.00
54788;DHT22;59598;48.112;16.280;2023-05-27T04:03:49;13.50;1.00
54788;DHT22;59598;48.112;16.280;2023-05-27T04:06:21;13.50;1.00
54788;DHT22;59598;48.112;16.280;2023-05-27T04:08:52;13.50;1.00
54788;DHT22;59598;48.112;16.280;2023-05-27T04:11:26;13.60;1.00
54788;DHT22;59598;48.112;16.280;2023-05-27T04:14:06;13.60;1.00
54788;DHT22;59598;48.112;16.280;2023-05-27T04:16:40;13.70;1.00
54788;DHT22;59598;48.112;16.280;2023-05-27T04:19:12;13.70;1.00
54788;DHT22;59598;48.112;16.280;2023-05-27T04:21:52;13.70;1.00
54788;DHT22;59598;48.112;16.280;2023-05-27T04:24:24;13.80;1.00
54788;DHT22;59598;48.112;16.280;2023-05-27T04:26:56;13.80;1.00
54788;DHT22;59598;48.112;16.280;2023-05-27T04:29:27;13.90;1.00
54788;DHT22;59598;48.112;16.280;2023-05-27T04:31:58;13.90;1.00
54788;DHT22;59598;48.112;16.280;2023-05-27T04:34:32;14.00;1.00
54788;DHT22;59598;48.112;16.280;2023-05-27T04:37:06;14.00;1.00
54788;DHT22;59598;48.112;16.280;2023-05-27T04:39:40;14.10;1.00
54788;DHT22;59598;48.112;16.280;2023-05-27T04:42:18;14.20;1.00
54788;DHT22;59598;48.112;16.280;2023-05-27T04:44:53;14.20;1.00
54788;DHT22;59598;48.112;16.280;2023-05-27T04:47:32;14.30;1.00
54788;DHT22;59598;48.112;16.280;2023-05-27T04:50:04;14.20;1.00
54788;DHT22;59598;48.112;16.280;2023-05-27T04:52:36;14.30;1.00
54788;DHT22;59598;48.112;16.280;2023-05-27T04:55:11;14.30;1.00
54788;DHT22;59598;48.112;16.280;2023-05-27T04:57:45;14.30;1.00
54788;DHT22;59598;48.112;16.280;2023-05-27T05:00:17;14.30;1.00
54788;DHT22;59598;48.112;16.280;2023-05-27T05:02:52;14.40;1.00
54788;DHT22;59598;48.112;16.280;2023-05-27T05:05:32;14.60;1.00
54788;DHT22;59598;48.112;16.280;2023-05-27T05:08:03;14.70;1.00
54788;DHT22;59598;48.112;16.280;2023-05-27T05:10:40;14.60;1.00
54788;DHT22;59598;48.112;16.280;2023-05-27T05:13:11;14.60;1.00
54788;DHT22;59598;48.112;16.280;2023-05-27T05:15:43;14.70;1.00
54788;DHT22;59598;48.112;16.280;2023-05-27T05:18:15;14.80;1.00
54788;DHT22;59598;48.112;16.280;2023-05-27T05:20:47;14.90;1.00
54788;DHT22;59598;48.112;16.280;2023-05-27T05:23:18;15.10;1.00
54788;DHT22;59598;48.112;16.280;2023-05-27T05:25:50;15.10;1.00
54788;DHT22;59598;48.112;16.280;2023-05-27T05:28:29;15.20;1.00
54788;DHT22;59598;48.112;16.280;2023-05-27T05:31:01;15.30;1.00
54788;DHT22;59598;48.112;16.280;2023-05-27T05:33:35;15.30;1.00
54788;DHT22;59598;48.112;16.280;2023-05-27T05:36:10;15.50;1.00
54788;DHT22;59598;48.112;16.280;2023-05-27T05:38:47;15.50;99.90
54788;DHT22;59598;48.112;16.280;2023-05-27T05:41:21;15.50;99.90
54788;DHT22;59598;48.112;16.280;2023-05-27T05:43:53;15.50;99.90
54788;DHT22;59598;48.112;16.280;2023-05-27T05:46:24;15.50;99.90
54788;DHT22;59598;48.112;16.280;2023-05-27T05:48:58;15.60;99.90
54788;DHT22;59598;48.112;16.280;2023-05-27T05:51:29;15.60;99.90
54788;DHT22;59598;48.112;16.280;2023-05-27T05:54:01;15.80;99.90
54788;DHT22;59598;48.112;16.280;2023-05-27T05:56:33;15.70;99.90
54788;DHT22;59598;48.112;16.280;2023-05-27T05:59:04;16.00;99.90
54788;DHT22;59598;48.112;16.280;2023-05-27T06:01:35;16.00;99.90
54788;DHT22;59598;48.112;16.280;2023-05-27T06:04:08;16.00;99.90
54788;DHT22;59598;48.112;16.280;2023-05-27T06:06:40;16.10;99.90
54788;DHT22;59598;48.112;16.280;2023-05-27T06:09:15;16.00;99.90
54788;DHT22;59598;48.112;16.280;2023-05-27T06:11:46;16.00;99.90
54788;DHT22;59598;48.112;16.280;2023-05-27T06:14:20;16.20;99.90
54788;DHT22;59598;48.112;16.280;2023-05-27T06:16:54;16.50;99.90
54788;DHT22;59598;48.112;16.280;2023-05-27T06:19:25;16.70;99.90
54788;DHT22;59598;48.112;16.280;2023-05-27T06:22:00;16.70;99.90
54788;DHT22;59598;48.112;16.280;2023-05-27T06:24:38;16.40;1.00
54788;DHT22;59598;48.112;16.280;2023-05-27T06:27:10;16.50;1.00
54788;DHT22;59598;48.112;16.280;2023-05-27T06:29:43;16.80;1.00
54788;DHT22;59598;48.112;16.280;2023-05-27T06:32:16;16.60;1.00
54788;DHT22;59598;48.112;16.280;2023-05-27T06:34:47;16.70;1.00
54788;DHT22;59598;48.112;16.280;2023-05-27T06:37:18;17.00;1.00
54788;DHT22;59598;48.112;16.280;2023-05-27T06:39:50;16.90;1.00
54788;DHT22;59598;48.112;16.280;2023-05-27T06:42:22;16.90;1.00
54788;DHT22;59598;48.112;16.280;2023-05-27T06:44:54;17.00;1.00
54788;DHT22;59598;48.112;16.280;2023-05-27T06:47:25;16.90;1.00
54788;DHT22;59598;48.112;16.280;2023-05-27T06:49:57;17.00;1.00
54788;DHT22;59598;48.112;16.280;2023-05-27T06:52:28;17.10;1.00
54788;DHT22;59598;48.112;16.280;2023-05-27T06:55:00;17.00;1.00
54788;DHT22;59598;48.112;16.280;2023-05-27T06:57:34;17.10;1.00
54788;DHT22;59598;48.112;16.280;2023-05-27T07:00:07;17.30;1.00
54788;DHT22;59598;48.112;16.280;2023-05-27T07:02:39;17.60;1.00
54788;DHT22;59598;48.112;16.280;2023-05-27T07:05:18;17.60;1.00
54788;DHT22;59598;48.112;16.280;2023-05-27T07:07:49;17.50;1.00
54788;DHT22;59598;48.112;16.280;2023-05-27T07:10:26;17.60;1.00
54788;DHT22;59598;48.112;16.280;2023-05-27T07:12:57;18.20;1.00
54788;DHT22;59598;48.112;16.280;2023-05-27T07:15:28;18.50;1.00
54788;DHT22;59598;48.112;16.280;2023-05-27T07:18:05;18.50;1.00
54788;DHT22;59598;48.112;16.280;2023-05-27T07:20:39;18.00;1.00
54788;DHT22;59598;48.112;16.280;2023-05-27T07:23:12;18.20;1.00
54788;DHT22;59598;48.112;16.280;2023-05-27T07:25:47;18.30;1.00
54788;DHT22;59598;48.112;16.280;2023-05-27T07:28:18;18.50;1.00
54788;DHT22;59598;48.112;16.280;2023-05-27T07:30:52;18.40;1.00
54788;DHT22;59598;48.112;16.280;2023-05-27T07:33:26;18.30;1.00
54788;DHT22;59598;48.112;16.280;2023-05-27T07:35:57;18.30;1.00
54788;DHT22;59598;48.112;16.280;2023-05-27T07:38:29;18.40;1.00
54788;DHT22;59598;48.112;16.280;2023-05-27T07:41:00;18.60;99.90
54788;DHT22;59598;48.112;16.280;2023-05-27T07:43:33;18.60;99.90
54788;DHT22;59598;48.112;16.280;2023-05-27T07:46:06;18.50;99.90
54788;DHT22;59598;48.112;16.280;2023-05-27T07:48:38;18.60;99.90
54788;DHT22;59598;48.112;16.280;2023-05-27T07:51:17;18.70;99.90
54788;DHT22;59598;48.112;16.280;2023-05-27T07:53:51;18.40;99.90
54788;DHT22;59598;48.112;16.280;2023-05-27T07:56:23;18.80;99.90
54788;DHT22;59598;48.112;16.280;2023-05-27T07:58:54;18.90;99.90
54788;DHT22;59598;48.112;16.280;2023-05-27T08:01:25;18.90;99.90
54788;DHT22;59598;48.112;16.280;2023-05-27T08:04:04;18.80;99.90
54788;DHT22;59598;48.112;16.280;2023-05-27T08:06:39;18.90;99.90
54788;DHT22;59598;48.112;16.280;2023-05-27T08:09:10;19.60;99.90
54788;DHT22;59598;48.112;16.280;2023-05-27T08:11:43;20.10;99.90
54788;DHT22;59598;48.112;16.280;2023-05-27T08:14:14;20.20;99.90
54788;DHT22;59598;48.112;16.280;2023-05-27T08:16:50;20.50;99.90
54788;DHT22;59598;48.112;16.280;2023-05-27T08:19:21;19.20;99.90
54788;DHT22;59598;48.112;16.280;2023-05-27T08:21:56;19.00;99.90
54788;DHT22;59598;48.112;16.280;2023-05-27T08:24:28;19.30;99.90
54788;DHT22;59598;48.112;16.280;2023-05-27T08:27:11;19.30;99.90
54788;DHT22;59598;48.112;16.280;2023-05-27T08:29:45;19.30;99.90
54788;DHT22;59598;48.112;16.280;2023-05-27T08:32:16;19.90;99.90
54788;DHT22;59598;48.112;16.280;2023-05-27T08:34:50;20.50;99.90
54788;DHT22;59598;48.112;16.280;2023-05-27T08:37:29;20.70;81.10
54788;DHT22;59598;48.112;16.280;2023-05-27T08:40:00;21.20;99.90
54788;DHT22;59598;48.112;16.280;2023-05-27T08:42:39;21.20;2.70
54788;DHT22;59598;48.112;16.280;2023-05-27T08:45:11;21.10;99.90
54788;DHT22;59598;48.112;16.280;2023-05-27T08:47:45;20.00;1.00
54788;DHT22;59598;48.112;16.280;2023-05-27T08:50:19;20.00;1.00
54788;DHT22;59598;48.112;16.280;2023-05-27T08:52:53;20.50;1.00
54788;DHT22;59598;48.112;16.280;2023-05-27T08:55:26;21.10;1.00
54788;DHT22;59598;48.112;16.280;2023-05-27T08:57:59;20.70;5.10
54788;DHT22;59598;48.112;16.280;2023-05-27T09:00:32;20.30;1.00
54788;DHT22;59598;48.112;16.280;2023-05-27T09:03:04;20.50;1.00
54788;DHT22;59598;48.112;16.280;2023-05-27T09:05:36;20.40;1.00
54788;DHT22;59598;48.112;16.280;2023-05-27T09:08:11;20.40;1.00
54788;DHT22;59598;48.112;16.280;2023-05-27T09:10:43;20.70;1.00
54788;DHT22;59598;48.112;16.280;2023-05-27T09:13:28;21.20;1.00
54788;DHT22;59598;48.112;16.280;2023-05-27T09:16:05;21.70;13.60
54788;DHT22;59598;48.112;16.280;2023-05-27T09:18:37;21.80;1.00
54788;DHT22;59598;48.112;16.280;2023-05-27T09:21:08;21.80;1.00
54788;DHT22;59598;48.112;16.280;2023-05-27T09:23:40;21.70;12.60
54788;DHT22;59598;48.112;16.280;2023-05-27T09:26:13;20.50;90.90
54788;DHT22;59598;48.112;16.280;2023-05-27T09:28:45;19.90;1.00
54788;DHT22;59598;48.112;16.280;2023-05-27T09:31:20;20.50;1.60
54788;DHT22;59598;48.112;16.280;2023-05-27T09:33:55;20.60;99.90
54788;DHT22;59598;48.112;16.280;2023-05-27T09:36:29;21.10;99.90
54788;DHT22;59598;48.112;16.280;2023-05-27T09:39:02;21.80;99.90
54788;DHT22;59598;48.112;16.280;2023-05-27T09:41:37;22.30;99.90
54788;DHT22;59598;48.112;16.280;2023-05-27T09:44:11;21.70;99.90
54788;DHT22;59598;48.112;16.280;2023-05-27T09:46:44;20.80;99.30
54788;DHT22;59598;48.112;16.280;2023-05-27T09:49:19;21.00;86.10
54788;DHT22;59598;48.112;16.280;2023-05-27T09:51:54;21.90;99.90
54788;DHT22;59598;48.112;16.280;2023-05-27T09:54:28;22.10;99.90
54788;DHT22;59598;48.112;16.280;2023-05-27T09:57:02;22.20;1.00
54788;DHT22;59598;48.112;16.280;2023-05-27T09:59:33;22.90;1.00
54788;DHT22;59598;48.112;16.280;2023-05-27T10:02:09;22.30;99.90
54788;DHT22;59598;48.112;16.280;2023-05-27T10:04:45;22.20;99.90
54788;DHT22;59598;48.112;16.280;2023-05-27T10:07:22;22.40;99.90
54788;DHT22;59598;48.112;16.280;2023-05-27T10:09:57;22.70;99.90
54788;DHT22;59598;48.112;16.280;2023-05-27T10:12:31;22.20;99.90
54788;DHT22;59598;48.112;16.280;2023-05-27T10:15:04;22.50;99.90
54788;DHT22;59598;48.112;16.280;2023-05-27T10:17:47;22.60;99.90
54788;DHT22;59598;48.112;16.280;2023-05-27T10:20:34;23.20;1.00
54788;DHT22;59598;48.112;16.280;2023-05-27T10:23:21;23.10;99.90
54788;DHT22;59598;48.112;16.280;2023-05-27T10:26:12;23.20;99.90
54788;DHT22;59598;48.112;16.280;2023-05-27T10:28:50;23.20;99.90
54788;DHT22;59598;48.112;16.280;2023-05-27T10:31:29;23.30;99.90
54788;DHT22;59598;48.112;16.280;2023-05-27T10:34:04;23.50;99.90
54788;DHT22;59598;48.112;16.280;2023-05-27T10:36:37;23.30;1.00
54788;DHT22;59598;48.112;16.280;2023-05-27T10:39:17;23.00;1.00
54788;DHT22;59598;48.112;16.280;2023-05-27T10:41:53;23.90;1.00
54788;DHT22;59598;48.112;16.280;2023-05-27T10:44:33;23.70;1.00
54788;DHT22;59598;48.112;16.280;2023-05-27T10:47:09;24.20;99.90
54788;DHT22;59598;48.112;16.280;2023-05-27T10:49:47;23.30;1.00
54788;DHT22;59598;48.112;16.280;2023-05-27T10:52:24;22.50;1.00
54788;DHT22;59598;48.112;16.280;2023-05-27T10:55:00;23.40;99.90
54788;DHT22;59598;48.112;16.280;2023-05-27T10:57:34;23.40;99.90
54788;DHT22;59598;48.112;16.280;2023-05-27T11:00:06;24.30;1.00
54788;DHT22;59598;48.112;16.280;2023-05-27T11:02:42;25.20;1.00
54788;DHT22;59598;48.112;16.280;2023-05-27T11:05:14;25.20;1.00
54788;DHT22;59598;48.112;16.280;2023-05-27T11:07:46;25.40;99.90
54788;DHT22;59598;48.112;16.280;2023-05-27T11:10:21;26.50;99.90
54788;DHT22;59598;48.112;16.280;2023-05-27T11:12:52;26.10;1.00
54788;DHT22;59598;48.112;16.280;2023-05-27T11:15:24;26.30;1.00
54788;DHT22;59598;48.112;16.280;2023-05-27T11:18:01;25.80;1.00
54788;DHT22;59598;48.112;16.280;2023-05-27T11:20:37;25.00;1.00
54788;DHT22;59598;48.112;16.280;2023-05-27T11:23:11;25.40;99.90
54788;DHT22;59598;48.112;16.280;2023-05-27T11:25:50;26.00;99.90
54788;DHT22;59598;48.112;16.280;2023-05-27T11:28:22;27.10;1.00
54788;DHT22;59598;48.112;16.280;2023-05-27T11:31:01;26.10;1.00
54788;DHT22;59598;48.112;16.280;2023-05-27T11:33:40;27.00;1.00
54788;DHT22;59598;48.112;16.280;2023-05-27T11:36:14;27.70;1.00
54788;DHT22;59598;48.112;16.280;2023-05-27T11:38:51;25.90;1.00
54788;DHT22;59598;48.112;16.280;2023-05-27T11:41:28;26.30;99.90
54788;DHT22;59598;48.112;16.280;2023-05-27T11:44:04;26.10;99.90
54788;DHT22;59598;48.112;16.280;2023-05-27T11:46:41;26.70;99.90
54788;DHT22;59598;48.112;16.280;2023-05-27T11:49:19;26.50;99.90
54788;DHT22;59598;48.112;16.280;2023-05-27T11:51:50;27.40;1.00
54788;DHT22;59598;48.112;16.280;2023-05-27T11:54:29;27.50;1.00
54788;DHT22;59598;48.112;16.280;2023-05-27T11:57:02;27.40;1.00
54788;DHT22;59598;48.112;16.280;2023-05-27T11:59:37;27.40;1.00
54788;DHT22;59598;48.112;16.280;2023-05-27T12:02:11;26.10;1.00
54788;DHT22;59598;48.112;16.280;2023-05-27T12:04:52;25.90;1.00
54788;DHT22;59598;48.112;16.280;2023-05-27T12:07:26;27.20;1.00
54788;DHT22;59598;48.112;16.280;2023-05-27T12:09:57;25.90;1.00
54788;DHT22;59598;48.112;16.280;2023-05-27T12:12:28;25.90;1.00
54788;DHT22;59598;48.112;16.280;2023-05-27T12:15:05;26.50;1.00
54788;DHT22;59598;48.112;16.280;2023-05-27T12:17:40;27.80;20.60
54788;DHT22;59598;48.112;16.280;2023-05-27T12:20:11;27.70;99.90
54788;DHT22;59598;48.112;16.280;2023-05-27T12:22:44;26.90;99.90
54788;DHT22;59598;48.112;16.280;2023-05-27T12:25:15;26.60;51.20
54788;DHT22;59598;48.112;16.280;2023-05-27T12:27:46;27.20;99.90
54788;DHT22;59598;48.112;16.280;2023-05-27T12:30:20;27.90;99.90
54788;DHT22;59598;48.112;16.280;2023-05-27T12:32:54;28.50;99.90
54788;DHT22;59598;48.112;16.280;2023-05-27T12:35:26;28.60;99.90
54788;DHT22;59598;48.112;16.280;2023-05-27T12:37:58;27.60;99.90
54788;DHT22;59598;48.112;16.280;2023-05-27T12:40:29;27.20;1.00
54788;DHT22;59598;48.112;16.280;2023-05-27T12:43:01;28.30;1.00
54788;DHT22;59598;48.112;16.280;2023-05-27T12:45:35;28.70;1.00
54788;DHT22;59598;48.112;16.280;2023-05-27T12:48:07;28.80;1.00
54788;DHT22;59598;48.112;16.280;2023-05-27T12:50:40;27.90;1.00
54788;DHT22;59598;48.112;16.280;2023-05-27T12:53:11;27.60;1.00
54788;DHT22;59598;48.112;16.280;2023-05-27T12:55:45;26.80;1.00
54788;DHT22;59598;48.112;16.280;2023-05-27T12:58:20;27.50;1.00
54788;DHT22;59598;48.112;16.280;2023-05-27T13:00:52;27.80;1.00
54788;DHT22;59598;48.112;16.280;2023-05-27T13:03:25;29.10;1.00
54788;DHT22;59598;48.112;16.280;2023-05-27T13:05:57;28.50;1.00
54788;DHT22;59598;48.112;16.280;2023-05-27T13:08:32;29.00;1.00
54788;DHT22;59598;48.112;16.280;2023-05-27T13:11:03;28.40;1.00
54788;DHT22;59598;48.112;16.280;2023-05-27T13:13:34;28.10;1.00
54788;DHT22;59598;48.112;16.280;2023-05-27T13:16:07;28.00;1.00
54788;DHT22;59598;48.112;16.280;2023-05-27T13:18:38;28.20;1.00
54788;DHT22;59598;48.112;16.280;2023-05-27T13:21:10;29.30;1.00
54788;DHT22;59598;48.112;16.280;2023-05-27T13:23:43;29.60;1.00
54788;DHT22;59598;48.112;16.280;2023-05-27T13:26:15;29.40;99.90
54788;DHT22;59598;48.112;16.280;2023-05-27T13:28:50;29.40;99.90
54788;DHT22;59598;48.112;16.280;2023-05-27T13:31:24;27.40;42.70
54788;DHT22;59598;48.112;16.280;2023-05-27T13:33:57;28.50;99.90
54788;DHT22;59598;48.112;16.280;2023-05-27T13:36:29;28.30;99.90
54788;DHT22;59598;48.112;16.280;2023-05-27T13:39:00;29.10;99.90
54788;DHT22;59598;48.112;16.280;2023-05-27T13:41:31;29.40;99.90
54788;DHT22;59598;48.112;16.280;2023-05-27T13:44:05;28.20;99.90
54788;DHT22;59598;48.112;16.280;2023-05-27T13:46:38;28.30;99.90
54788;DHT22;59598;48.112;16.280;2023-05-27T13:49:11;28.50;99.90
54788;DHT22;59598;48.112;16.280;2023-05-27T13:51:46;28.10;99.90
54788;DHT22;59598;48.112;16.280;2023-05-27T13:54:17;28.10;99.90
54788;DHT22;59598;48.112;16.280;2023-05-27T13:56:49;27.80;99.90
54788;DHT22;59598;48.112;16.280;2023-05-27T13:59:21;28.00;99.90
54788;DHT22;59598;48.112;16.280;2023-05-27T14:01:52;28.40;99.90
54788;DHT22;59598;48.112;16.280;2023-05-27T14:04:30;27.40;99.90
54788;DHT22;59598;48.112;16.280;2023-05-27T14:07:04;27.60;99.90
54788;DHT22;59598;48.112;16.280;2023-05-27T14:09:38;27.90;99.90
54788;DHT22;59598;48.112;16.280;2023-05-27T14:12:14;27.30;99.90
54788;DHT22;59598;48.112;16.280;2023-05-27T14:14:46;28.30;99.90
54788;DHT22;59598;48.112;16.280;2023-05-27T14:17:17;27.90;99.90
54788;DHT22;59598;48.112;16.280;2023-05-27T14:19:49;27.60;99.90
54788;DHT22;59598;48.112;16.280;2023-05-27T14:22:24;28.40;99.90
54788;DHT22;59598;48.112;16.280;2023-05-27T14:24:55;27.80;99.90
54788;DHT22;59598;48.112;16.280;2023-05-27T14:27:32;27.00;26.60
54788;DHT22;59598;48.112;16.280;2023-05-27T14:30:07;27.20;1.00
54788;DHT22;59598;48.112;16.280;2023-05-27T14:32:39;27.80;1.00
54788;DHT22;59598;48.112;16.280;2023-05-27T14:35:13;26.80;1.00
54788;DHT22;59598;48.112;16.280;2023-05-27T14:37:45;25.90;1.00
54788;DHT22;59598;48.112;16.280;2023-05-27T14:40:18;26.20;1.00
54788;DHT22;59598;48.112;16.280;2023-05-27T14:42:50;27.20;1.00
54788;DHT22;59598;48.112;16.280;2023-05-27T14:45:24;27.40;1.00
54788;DHT22;59598;48.112;16.280;2023-05-27T14:47:56;25.70;1.00
54788;DHT22;59598;48.112;16.280;2023-05-27T14:50:30;25.80;1.00
54788;DHT22;59598;48.112;16.280;2023-05-27T14:53:01;27.10;1.00
54788;DHT22;59598;48.112;16.280;2023-05-27T14:55:32;28.40;1.00
54788;DHT22;59598;48.112;16.280;2023-05-27T14:58:08;29.00;1.00
54788;DHT22;59598;48.112;16.280;2023-05-27T15:00:41;28.40;1.00
54788;DHT22;59598;48.112;16.280;2023-05-27T15:03:15;28.20;1.00
54788;DHT22;59598;48.112;16.280;2023-05-27T15:05:49;27.20;1.00
54788;DHT22;59598;48.112;16.280;2023-05-27T15:08:22;27.50;1.00
54788;DHT22;59598;48.112;16.280;2023-05-27T15:10:54;27.30;1.00
54788;DHT22;59598;48.112;16.280;2023-05-27T15:13:25;27.00;1.00
54788;DHT22;59598;48.112;16.280;2023-05-27T15:15:59;27.80;1.00
54788;DHT22;59598;48.112;16.280;2023-05-27T15:18:32;26.40;1.00
54788;DHT22;59598;48.112;16.280;2023-05-27T15:21:08;25.90;1.00
54788;DHT22;59598;48.112;16.280;2023-05-27T15:23:42;26.10;1.00
54788;DHT22;59598;48.112;16.280;2023-05-27T15:26:14;26.30;1.00
54788;DHT22;59598;48.112;16.280;2023-05-27T15:28:45;26.40;1.00
54788;DHT22;59598;48.112;16.280;2023-05-27T15:31:17;25.90;99.90
54788;DHT22;59598;48.112;16.280;2023-05-27T15:33:48;25.70;99.90
54788;DHT22;59598;48.112;16.280;2023-05-27T15:36:22;25.20;1.00
54788;DHT22;59598;48.112;16.280;2023-05-27T15:38:59;25.70;1.00
54788;DHT22;59598;48.112;16.280;2023-05-27T15:41:30;26.50;60.20
54788;DHT22;59598;48.112;16.280;2023-05-27T15:44:02;26.90;1.00
54788;DHT22;59598;48.112;16.280;2023-05-27T15:46:33;25.80;1.00
54788;DHT22;59598;48.112;16.280;2023-05-27T15:49:04;25.30;1.00
54788;DHT22;59598;48.112;16.280;2023-05-27T15:51:36;24.70;1.00
54788;DHT22;59598;48.112;16.280;2023-05-27T15:54:09;24.70;23.00
54788;DHT22;59598;48.112;16.280;2023-05-27T15:56:44;24.40;1.00
54788;DHT22;59598;48.112;16.280;2023-05-27T15:59:17;24.60;1.00
54788;DHT22;59598;48.112;16.280;2023-05-27T16:01:49;25.00;49.10
54788;DHT22;59598;48.112;16.280;2023-05-27T16:04:23;24.90;8.00
54788;DHT22;59598;48.112;16.280;2023-05-27T16:06:55;24.60;1.00
54788;DHT22;59598;48.112;16.280;2023-05-27T16:09:26;24.90;1.00